sensor_id;sensor_type;location;lat;lon;timestamp;P1;durP1;ratioP1;P2;durP2;ratioP2
74044;SDS011;62389;51.412;5.436;2023-11-21T00:00:50;13.02;;;7.30;;
74044;SDS011;62389;51.412;5.436;2023-11-21T00:03:16;18.08;;;8.60;;
74044;SDS011;62389;51.412;5.436;2023-11-21T00:05:41;13.13;;;7.47;;
74044;SDS011;62389;51.412;5.436;2023-11-21T00:08:09;14.57;;;7.93;;
74044;SDS011;62389;51.412;5.436;2023-11-21T00:10:35;13.43;;;7.45;;
74044;SDS011;62389;51.412;5.436;2023-11-21T00:13:03;20.08;;;9.13;;
74044;SDS011;62389;51.412;5.436;2023-11-21T00:15:28;13.70;;;7.95;;
74044;SDS011;62389;51.412;5.436;2023-11-21T00:17:53;17.65;;;8.07;;
74044;SDS011;62389;51.412;5.436;2023-11-21T00:20:19;14.23;;;7.70;;
74044;SDS011;62389;51.412;5.436;2023-11-21T00:22:45;15.70;;;8.48;;
74044;SDS011;62389;51.412;5.436;2023-11-21T00:25:11;16.38;;;8.65;;
74044;SDS011;62389;51.412;5.436;2023-11-21T00:27:39;15.85;;;8.30;;
74044;SDS011;62389;51.412;5.436;2023-11-21T00:30:04;16.05;;;9.18;;
74044;SDS011;62389;51.412;5.436;2023-11-21T00:32:31;20.10;;;9.35;;
74044;SDS011;62389;51.412;5.436;2023-11-21T00:34:56;14.48;;;7.75;;
74044;SDS011;62389;51.412;5.436;2023-11-21T00:37:22;12.65;;;7.93;;
74044;SDS011;62389;51.412;5.436;2023-11-21T00:39:48;14.18;;;8.13;;
74044;SDS011;62389;51.412;5.436;2023-11-21T00:42:14;14.25;;;8.20;;
74044;SDS011;62389;51.412;5.436;2023-11-21T00:44:39;14.65;;;7.65;;
74044;SDS011;62389;51.412;5.436;2023-11-21T00:47:05;15.65;;;7.95;;
74044;SDS011;62389;51.412;5.436;2023-11-21T00:49:30;13.82;;;7.55;;
74044;SDS011;62389;51.412;5.436;2023-11-21T00:51:55;14.85;;;7.40;;
74044;SDS011;62389;51.412;5.436;2023-11-21T00:54:23;11.98;;;8.02;;
74044;SDS011;62389;51.412;5.436;2023-11-21T00:56:48;14.25;;;7.82;;
74044;SDS011;62389;51.412;5.436;2023-11-21T00:59:14;13.18;;;7.97;;
74044;SDS011;62389;51.412;5.436;2023-11-21T01:01:39;11.82;;;6.75;;
74044;SDS011;62389;51.412;5.436;2023-11-21T01:04:05;11.98;;;7.60;;
74044;SDS011;62389;51.412;5.436;2023-11-21T01:06:31;14.50;;;8.13;;
74044;SDS011;62389;51.412;5.436;2023-11-21T01:08:57;13.10;;;8.05;;
74044;SDS011;62389;51.412;5.436;2023-11-21T01:11:23;13.27;;;7.93;;
74044;SDS011;62389;51.412;5.436;2023-11-21T01:13:48;12.95;;;7.15;;
74044;SDS011;62389;51.412;5.436;2023-11-21T01:16:13;16.23;;;7.82;;
74044;SDS011;62389;51.412;5.436;2023-11-21T01:18:39;17.58;;;8.68;;
74044;SDS011;62389;51.412;5.436;2023-11-21T01:21:04;14.85;;;8.27;;
74044;SDS011;62389;51.412;5.436;2023-11-21T01:23:29;12.88;;;7.63;;
74044;SDS011;62389;51.412;5.436;2023-11-21T01:25:55;14.88;;;7.50;;
74044;SDS011;62389;51.412;5.436;2023-11-21T01:28:21;13.70;;;8.82;;
74044;SDS011;62389;51.412;5.436;2023-11-21T01:30:47;15.50;;;8.63;;
74044;SDS011;62389;51.412;5.436;2023-11-21T01:33:13;13.57;;;9.18;;
74044;SDS011;62389;51.412;5.436;2023-11-21T01:38:05;12.73;;;7.32;;
74044;SDS011;62389;51.412;5.436;2023-11-21T01:40:33;13.07;;;8.38;;
74044;SDS011;62389;51.412;5.436;2023-11-21T01:42:58;16.60;;;8.02;;
74044;SDS011;62389;51.412;5.436;2023-11-21T01:45:23;15.10;;;8.65;;
74044;SDS011;62389;51.412;5.436;2023-11-21T01:47:50;15.40;;;8.70;;
74044;SDS011;62389;51.412;5.436;2023-11-21T01:50:15;14.90;;;8.40;;
74044;SDS011;62389;51.412;5.436;2023-11-21T01:52:42;14.15;;;7.95;;
74044;SDS011;62389;51.412;5.436;2023-11-21T01:57:35;13.98;;;7.88;;
74044;SDS011;62389;51.412;5.436;2023-11-21T02:00:02;17.65;;;8.88;;
74044;SDS011;62389;51.412;5.436;2023-11-21T02:02:43;18.00;;;9.38;;
74044;SDS011;62389;51.412;5.436;2023-11-21T02:05:16;18.83;;;9.68;;
74044;SDS011;62389;51.412;5.436;2023-11-21T02:07:43;18.85;;;10.23;;
74044;SDS011;62389;51.412;5.436;2023-11-21T02:10:09;21.60;;;10.15;;
74044;SDS011;62389;51.412;5.436;2023-11-21T02:12:39;19.55;;;10.35;;
74044;SDS011;62389;51.412;5.436;2023-11-21T02:15:05;19.88;;;9.98;;
74044;SDS011;62389;51.412;5.436;2023-11-21T02:17:37;23.70;;;10.25;;
74044;SDS011;62389;51.412;5.436;2023-11-21T02:20:03;47.53;;;11.23;;
74044;SDS011;62389;51.412;5.436;2023-11-21T02:22:31;26.77;;;9.75;;
74044;SDS011;62389;51.412;5.436;2023-11-21T02:25:02;31.55;;;11.20;;
74044;SDS011;62389;51.412;5.436;2023-11-21T02:27:28;29.27;;;10.63;;
74044;SDS011;62389;51.412;5.436;2023-11-21T02:29:53;39.70;;;11.30;;
74044;SDS011;62389;51.412;5.436;2023-11-21T02:32:19;62.20;;;13.05;;
74044;SDS011;62389;51.412;5.436;2023-11-21T02:34:47;31.55;;;12.13;;
74044;SDS011;62389;51.412;5.436;2023-11-21T02:37:13;36.13;;;12.13;;
74044;SDS011;62389;51.412;5.436;2023-11-21T02:39:38;35.70;;;11.13;;
74044;SDS011;62389;51.412;5.436;2023-11-21T02:42:04;26.70;;;11.85;;
74044;SDS011;62389;51.412;5.436;2023-11-21T02:44:29;49.78;;;12.75;;
74044;SDS011;62389;51.412;5.436;2023-11-21T02:46:55;39.45;;;12.43;;
74044;SDS011;62389;51.412;5.436;2023-11-21T02:49:22;27.02;;;11.00;;
74044;SDS011;62389;51.412;5.436;2023-11-21T02:51:48;27.38;;;11.00;;
74044;SDS011;62389;51.412;5.436;2023-11-21T02:54:13;33.15;;;11.60;;
74044;SDS011;62389;51.412;5.436;2023-11-21T02:56:39;38.75;;;12.52;;
74044;SDS011;62389;51.412;5.436;2023-11-21T02:59:05;36.50;;;11.93;;
74044;SDS011;62389;51.412;5.436;2023-11-21T03:01:30;63.13;;;13.07;;
74044;SDS011;62389;51.412;5.436;2023-11-21T03:03:56;35.63;;;10.68;;
74044;SDS011;62389;51.412;5.436;2023-11-21T03:06:21;36.28;;;12.30;;
74044;SDS011;62389;51.412;5.436;2023-11-21T03:08:47;31.85;;;11.75;;
74044;SDS011;62389;51.412;5.436;2023-11-21T03:11:13;43.10;;;12.75;;
74044;SDS011;62389;51.412;5.436;2023-11-21T03:13:42;33.53;;;11.93;;
74044;SDS011;62389;51.412;5.436;2023-11-21T03:16:11;40.15;;;13.60;;
74044;SDS011;62389;51.412;5.436;2023-11-21T03:18:37;39.03;;;13.00;;
74044;SDS011;62389;51.412;5.436;2023-11-21T03:21:06;26.80;;;11.73;;
74044;SDS011;62389;51.412;5.436;2023-11-21T03:23:35;36.40;;;12.13;;
74044;SDS011;62389;51.412;5.436;2023-11-21T03:26:02;51.50;;;12.77;;
74044;SDS011;62389;51.412;5.436;2023-11-21T03:28:28;41.08;;;10.75;;
74044;SDS011;62389;51.412;5.436;2023-11-21T03:30:55;29.85;;;11.20;;
74044;SDS011;62389;51.412;5.436;2023-11-21T03:33:21;26.55;;;11.52;;
74044;SDS011;62389;51.412;5.436;2023-11-21T03:35:47;49.28;;;11.57;;
74044;SDS011;62389;51.412;5.436;2023-11-21T03:38:12;22.98;;;11.80;;
74044;SDS011;62389;51.412;5.436;2023-11-21T03:40:38;42.80;;;11.57;;
74044;SDS011;62389;51.412;5.436;2023-11-21T03:43:04;39.17;;;11.95;;
74044;SDS011;62389;51.412;5.436;2023-11-21T03:45:30;37.97;;;12.10;;
74044;SDS011;62389;51.412;5.436;2023-11-21T03:47:55;32.50;;;12.10;;
74044;SDS011;62389;51.412;5.436;2023-11-21T03:50:21;22.48;;;11.60;;
74044;SDS011;62389;51.412;5.436;2023-11-21T03:52:46;28.90;;;10.75;;
74044;SDS011;62389;51.412;5.436;2023-11-21T03:55:11;33.05;;;11.40;;
74044;SDS011;62389;51.412;5.436;2023-11-21T03:57:37;35.22;;;10.63;;
74044;SDS011;62389;51.412;5.436;2023-11-21T04:00:02;26.35;;;11.40;;
74044;SDS011;62389;51.412;5.436;2023-11-21T04:02:33;37.72;;;11.75;;
74044;SDS011;62389;51.412;5.436;2023-11-21T04:04:59;30.40;;;10.20;;
74044;SDS011;62389;51.412;5.436;2023-11-21T04:07:24;30.13;;;10.77;;
74044;SDS011;62389;51.412;5.436;2023-11-21T04:09:49;21.83;;;9.88;;
74044;SDS011;62389;51.412;5.436;2023-11-21T04:12:15;17.75;;;9.88;;
74044;SDS011;62389;51.412;5.436;2023-11-21T04:14:40;33.30;;;10.45;;
74044;SDS011;62389;51.412;5.436;2023-11-21T04:17:06;48.00;;;10.50;;
74044;SDS011;62389;51.412;5.436;2023-11-21T04:19:31;23.45;;;10.60;;
74044;SDS011;62389;51.412;5.436;2023-11-21T04:21:57;31.40;;;10.25;;
74044;SDS011;62389;51.412;5.436;2023-11-21T04:24:22;28.80;;;10.77;;
74044;SDS011;62389;51.412;5.436;2023-11-21T04:26:48;43.35;;;10.73;;
74044;SDS011;62389;51.412;5.436;2023-11-21T04:29:13;19.90;;;9.40;;
74044;SDS011;62389;51.412;5.436;2023-11-21T04:31:38;24.15;;;10.60;;
74044;SDS011;62389;51.412;5.436;2023-11-21T04:34:04;19.45;;;10.43;;
74044;SDS011;62389;51.412;5.436;2023-11-21T04:36:30;31.30;;;10.45;;
74044;SDS011;62389;51.412;5.436;2023-11-21T04:38:58;21.92;;;9.32;;
74044;SDS011;62389;51.412;5.436;2023-11-21T04:41:23;31.65;;;11.50;;
74044;SDS011;62389;51.412;5.436;2023-11-21T04:43:49;24.25;;;10.48;;
74044;SDS011;62389;51.412;5.436;2023-11-21T04:46:14;35.20;;;10.68;;
74044;SDS011;62389;51.412;5.436;2023-11-21T04:48:39;22.60;;;9.70;;
74044;SDS011;62389;51.412;5.436;2023-11-21T04:51:05;21.70;;;10.80;;
74044;SDS011;62389;51.412;5.436;2023-11-21T04:53:30;28.00;;;9.95;;
74044;SDS011;62389;51.412;5.436;2023-11-21T04:55:56;25.63;;;10.30;;
74044;SDS011;62389;51.412;5.436;2023-11-21T04:58:21;18.42;;;9.80;;
74044;SDS011;62389;51.412;5.436;2023-11-21T05:00:47;26.75;;;10.63;;
74044;SDS011;62389;51.412;5.436;2023-11-21T05:03:12;20.00;;;10.27;;
74044;SDS011;62389;51.412;5.436;2023-11-21T05:05:38;18.90;;;10.88;;
74044;SDS011;62389;51.412;5.436;2023-11-21T05:08:03;21.08;;;9.95;;
74044;SDS011;62389;51.412;5.436;2023-11-21T05:10:29;21.75;;;10.27;;
74044;SDS011;62389;51.412;5.436;2023-11-21T05:12:55;19.63;;;10.40;;
74044;SDS011;62389;51.412;5.436;2023-11-21T05:15:20;20.77;;;10.45;;
74044;SDS011;62389;51.412;5.436;2023-11-21T05:17:46;18.30;;;9.88;;
74044;SDS011;62389;51.412;5.436;2023-11-21T05:20:14;20.27;;;10.35;;
74044;SDS011;62389;51.412;5.436;2023-11-21T05:22:45;17.40;;;10.27;;
74044;SDS011;62389;51.412;5.436;2023-11-21T05:25:11;19.20;;;10.23;;
74044;SDS011;62389;51.412;5.436;2023-11-21T05:27:36;16.88;;;9.77;;
74044;SDS011;62389;51.412;5.436;2023-11-21T05:30:02;20.92;;;10.07;;
74044;SDS011;62389;51.412;5.436;2023-11-21T05:32:31;18.83;;;10.20;;
74044;SDS011;62389;51.412;5.436;2023-11-21T05:35:00;18.50;;;9.40;;
74044;SDS011;62389;51.412;5.436;2023-11-21T05:37:26;19.05;;;10.05;;
74044;SDS011;62389;51.412;5.436;2023-11-21T05:39:52;19.33;;;9.38;;
74044;SDS011;62389;51.412;5.436;2023-11-21T05:42:19;18.67;;;9.73;;
74044;SDS011;62389;51.412;5.436;2023-11-21T05:44:45;18.35;;;10.43;;
74044;SDS011;62389;51.412;5.436;2023-11-21T05:47:11;16.52;;;10.23;;
74044;SDS011;62389;51.412;5.436;2023-11-21T05:52:04;18.25;;;9.18;;
74044;SDS011;62389;51.412;5.436;2023-11-21T05:54:30;18.13;;;9.02;;
74044;SDS011;62389;51.412;5.436;2023-11-21T05:56:55;15.85;;;9.80;;
74044;SDS011;62389;51.412;5.436;2023-11-21T05:59:21;17.08;;;9.73;;
74044;SDS011;62389;51.412;5.436;2023-11-21T06:01:46;17.60;;;8.73;;
74044;SDS011;62389;51.412;5.436;2023-11-21T06:04:11;17.13;;;10.20;;
74044;SDS011;62389;51.412;5.436;2023-11-21T06:06:38;17.75;;;9.88;;
74044;SDS011;62389;51.412;5.436;2023-11-21T06:09:03;20.25;;;10.02;;
74044;SDS011;62389;51.412;5.436;2023-11-21T06:11:31;18.67;;;10.18;;
74044;SDS011;62389;51.412;5.436;2023-11-21T06:13:56;19.67;;;10.27;;
74044;SDS011;62389;51.412;5.436;2023-11-21T06:16:22;17.17;;;10.15;;
74044;SDS011;62389;51.412;5.436;2023-11-21T06:18:47;19.45;;;10.23;;
74044;SDS011;62389;51.412;5.436;2023-11-21T06:21:13;20.15;;;9.77;;
74044;SDS011;62389;51.412;5.436;2023-11-21T06:23:38;20.55;;;10.90;;
74044;SDS011;62389;51.412;5.436;2023-11-21T06:26:04;19.45;;;10.20;;
74044;SDS011;62389;51.412;5.436;2023-11-21T06:28:31;20.05;;;10.88;;
74044;SDS011;62389;51.412;5.436;2023-11-21T06:30:57;20.27;;;11.20;;
74044;SDS011;62389;51.412;5.436;2023-11-21T06:33:23;20.92;;;10.50;;
74044;SDS011;62389;51.412;5.436;2023-11-21T06:35:48;22.00;;;11.05;;
74044;SDS011;62389;51.412;5.436;2023-11-21T06:38:14;23.08;;;10.63;;
74044;SDS011;62389;51.412;5.436;2023-11-21T06:40:40;25.13;;;10.93;;
74044;SDS011;62389;51.412;5.436;2023-11-21T06:43:06;22.95;;;11.40;;
74044;SDS011;62389;51.412;5.436;2023-11-21T06:45:32;20.38;;;10.95;;
74044;SDS011;62389;51.412;5.436;2023-11-21T06:47:59;28.83;;;12.48;;
74044;SDS011;62389;51.412;5.436;2023-11-21T06:50:24;22.45;;;10.60;;
74044;SDS011;62389;51.412;5.436;2023-11-21T06:52:50;25.67;;;12.43;;
74044;SDS011;62389;51.412;5.436;2023-11-21T06:55:15;28.08;;;11.65;;
74044;SDS011;62389;51.412;5.436;2023-11-21T06:57:41;31.67;;;12.70;;
74044;SDS011;62389;51.412;5.436;2023-11-21T07:00:06;25.27;;;12.43;;
74044;SDS011;62389;51.412;5.436;2023-11-21T07:02:34;27.17;;;12.00;;
74044;SDS011;62389;51.412;5.436;2023-11-21T07:04:59;27.90;;;12.25;;
74044;SDS011;62389;51.412;5.436;2023-11-21T07:07:25;35.25;;;13.52;;
74044;SDS011;62389;51.412;5.436;2023-11-21T07:09:50;28.55;;;12.95;;
74044;SDS011;62389;51.412;5.436;2023-11-21T07:12:17;34.75;;;13.02;;
74044;SDS011;62389;51.412;5.436;2023-11-21T07:14:42;31.13;;;13.07;;
74044;SDS011;62389;51.412;5.436;2023-11-21T07:17:10;29.48;;;12.95;;
74044;SDS011;62389;51.412;5.436;2023-11-21T07:19:37;36.65;;;12.65;;
74044;SDS011;62389;51.412;5.436;2023-11-21T07:22:03;40.60;;;14.27;;
74044;SDS011;62389;51.412;5.436;2023-11-21T07:24:28;38.15;;;15.43;;
74044;SDS011;62389;51.412;5.436;2023-11-21T07:26:53;36.20;;;13.18;;
74044;SDS011;62389;51.412;5.436;2023-11-21T07:29:21;37.00;;;13.75;;
74044;SDS011;62389;51.412;5.436;2023-11-21T07:31:48;36.28;;;13.77;;
74044;SDS011;62389;51.412;5.436;2023-11-21T07:34:13;35.17;;;14.30;;
74044;SDS011;62389;51.412;5.436;2023-11-21T07:36:38;31.65;;;12.73;;
74044;SDS011;62389;51.412;5.436;2023-11-21T07:39:04;40.08;;;13.55;;
74044;SDS011;62389;51.412;5.436;2023-11-21T07:41:31;42.42;;;15.00;;
74044;SDS011;62389;51.412;5.436;2023-11-21T07:43:57;43.03;;;13.82;;
74044;SDS011;62389;51.412;5.436;2023-11-21T07:46:22;34.65;;;14.15;;
74044;SDS011;62389;51.412;5.436;2023-11-21T07:56:44;29.23;;;12.75;;
74044;SDS011;62389;51.412;5.436;2023-11-21T07:59:10;36.03;;;14.10;;
74044;SDS011;62389;51.412;5.436;2023-11-21T08:01:35;36.47;;;14.35;;
74044;SDS011;62389;51.412;5.436;2023-11-21T08:04:01;43.35;;;15.43;;
74044;SDS011;62389;51.412;5.436;2023-11-21T08:08:54;39.95;;;15.20;;
74044;SDS011;62389;51.412;5.436;2023-11-21T08:11:19;41.42;;;15.18;;
74044;SDS011;62389;51.412;5.436;2023-11-21T08:13:46;35.63;;;15.07;;
74044;SDS011;62389;51.412;5.436;2023-11-21T08:16:11;38.22;;;15.20;;
74044;SDS011;62389;51.412;5.436;2023-11-21T08:18:37;38.00;;;15.15;;
74044;SDS011;62389;51.412;5.436;2023-11-21T08:21:02;43.40;;;16.40;;
74044;SDS011;62389;51.412;5.436;2023-11-21T08:23:29;43.67;;;15.27;;
74044;SDS011;62389;51.412;5.436;2023-11-21T08:25:54;39.00;;;14.85;;
74044;SDS011;62389;51.412;5.436;2023-11-21T08:28:20;35.45;;;13.75;;
74044;SDS011;62389;51.412;5.436;2023-11-21T08:30:51;36.60;;;13.88;;
74044;SDS011;62389;51.412;5.436;2023-11-21T08:33:16;39.95;;;13.70;;
74044;SDS011;62389;51.412;5.436;2023-11-21T08:35:42;34.03;;;14.10;;
74044;SDS011;62389;51.412;5.436;2023-11-21T08:38:07;41.53;;;14.90;;
74044;SDS011;62389;51.412;5.436;2023-11-21T08:40:34;39.83;;;15.82;;
74044;SDS011;62389;51.412;5.436;2023-11-21T08:43:00;34.85;;;14.98;;
74044;SDS011;62389;51.412;5.436;2023-11-21T08:45:25;43.55;;;15.52;;
74044;SDS011;62389;51.412;5.436;2023-11-21T08:47:51;39.83;;;15.10;;
74044;SDS011;62389;51.412;5.436;2023-11-21T08:50:16;43.25;;;14.88;;
74044;SDS011;62389;51.412;5.436;2023-11-21T08:52:42;37.55;;;15.25;;
74044;SDS011;62389;51.412;5.436;2023-11-21T08:55:09;41.80;;;14.82;;
74044;SDS011;62389;51.412;5.436;2023-11-21T08:57:37;42.83;;;15.60;;
74044;SDS011;62389;51.412;5.436;2023-11-21T09:00:03;37.40;;;15.13;;
74044;SDS011;62389;51.412;5.436;2023-11-21T09:02:36;43.53;;;15.07;;
74044;SDS011;62389;51.412;5.436;2023-11-21T09:05:02;42.28;;;16.02;;
74044;SDS011;62389;51.412;5.436;2023-11-21T09:07:29;35.70;;;16.10;;
74044;SDS011;62389;51.412;5.436;2023-11-21T09:09:54;45.97;;;16.10;;
74044;SDS011;62389;51.412;5.436;2023-11-21T09:12:20;40.90;;;14.80;;
74044;SDS011;62389;51.412;5.436;2023-11-21T09:14:46;40.25;;;15.13;;
74044;SDS011;62389;51.412;5.436;2023-11-21T09:17:12;42.88;;;15.95;;
74044;SDS011;62389;51.412;5.436;2023-11-21T09:19:39;47.58;;;16.67;;
74044;SDS011;62389;51.412;5.436;2023-11-21T09:22:10;42.55;;;17.25;;
74044;SDS011;62389;51.412;5.436;2023-11-21T09:24:35;40.60;;;16.27;;
74044;SDS011;62389;51.412;5.436;2023-11-21T09:27:02;38.95;;;15.30;;
74044;SDS011;62389;51.412;5.436;2023-11-21T09:29:28;41.50;;;15.68;;
74044;SDS011;62389;51.412;5.436;2023-11-21T09:31:54;55.25;;;18.42;;
74044;SDS011;62389;51.412;5.436;2023-11-21T09:34:20;59.72;;;18.77;;
74044;SDS011;62389;51.412;5.436;2023-11-21T09:36:46;45.95;;;16.65;;
74044;SDS011;62389;51.412;5.436;2023-11-21T09:39:11;46.63;;;17.63;;
74044;SDS011;62389;51.412;5.436;2023-11-21T09:44:30;41.25;;;16.83;;
74044;SDS011;62389;51.412;5.436;2023-11-21T09:47:00;39.70;;;15.90;;
74044;SDS011;62389;51.412;5.436;2023-11-21T09:49:27;37.05;;;14.85;;
74044;SDS011;62389;51.412;5.436;2023-11-21T09:51:54;40.80;;;15.70;;
74044;SDS011;62389;51.412;5.436;2023-11-21T09:54:23;40.70;;;16.27;;
74044;SDS011;62389;51.412;5.436;2023-11-21T09:56:49;49.53;;;17.35;;
74044;SDS011;62389;51.412;5.436;2023-11-21T09:59:15;42.15;;;16.42;;
74044;SDS011;62389;51.412;5.436;2023-11-21T10:01:41;46.05;;;17.80;;
74044;SDS011;62389;51.412;5.436;2023-11-21T10:04:07;46.92;;;17.55;;
74044;SDS011;62389;51.412;5.436;2023-11-21T10:06:39;37.95;;;16.13;;
74044;SDS011;62389;51.412;5.436;2023-11-21T10:09:11;46.60;;;17.27;;
74044;SDS011;62389;51.412;5.436;2023-11-21T10:11:39;42.92;;;16.52;;
74044;SDS011;62389;51.412;5.436;2023-11-21T10:14:11;42.28;;;16.98;;
74044;SDS011;62389;51.412;5.436;2023-11-21T10:16:37;40.13;;;16.08;;
74044;SDS011;62389;51.412;5.436;2023-11-21T10:19:04;48.92;;;17.02;;
74044;SDS011;62389;51.412;5.436;2023-11-21T10:21:32;46.08;;;15.65;;
74044;SDS011;62389;51.412;5.436;2023-11-21T10:23:58;41.08;;;15.13;;
74044;SDS011;62389;51.412;5.436;2023-11-21T10:26:23;37.42;;;15.38;;
74044;SDS011;62389;51.412;5.436;2023-11-21T10:28:58;39.72;;;15.93;;
74044;SDS011;62389;51.412;5.436;2023-11-21T10:31:27;37.40;;;14.82;;
74044;SDS011;62389;51.412;5.436;2023-11-21T10:33:54;36.17;;;13.40;;
74044;SDS011;62389;51.412;5.436;2023-11-21T10:36:27;34.38;;;14.15;;
74044;SDS011;62389;51.412;5.436;2023-11-21T10:38:53;35.25;;;13.75;;
74044;SDS011;62389;51.412;5.436;2023-11-21T10:41:19;38.22;;;13.93;;
74044;SDS011;62389;51.412;5.436;2023-11-21T10:43:48;30.30;;;13.73;;
74044;SDS011;62389;51.412;5.436;2023-11-21T10:46:14;31.58;;;12.82;;
74044;SDS011;62389;51.412;5.436;2023-11-21T10:48:43;41.65;;;14.60;;
74044;SDS011;62389;51.412;5.436;2023-11-21T10:51:09;30.05;;;12.90;;
74044;SDS011;62389;51.412;5.436;2023-11-21T10:53:38;37.40;;;13.60;;
74044;SDS011;62389;51.412;5.436;2023-11-21T10:56:06;34.30;;;13.27;;
74044;SDS011;62389;51.412;5.436;2023-11-21T10:58:35;38.92;;;13.75;;
74044;SDS011;62389;51.412;5.436;2023-11-21T11:01:02;29.33;;;13.05;;
74044;SDS011;62389;51.412;5.436;2023-11-21T11:03:31;35.70;;;13.73;;
74044;SDS011;62389;51.412;5.436;2023-11-21T11:05:58;36.28;;;13.43;;
74044;SDS011;62389;51.412;5.436;2023-11-21T11:08:24;30.48;;;12.70;;
74044;SDS011;62389;51.412;5.436;2023-11-21T11:10:51;28.85;;;11.57;;
74044;SDS011;62389;51.412;5.436;2023-11-21T11:13:17;31.58;;;12.00;;
74044;SDS011;62389;51.412;5.436;2023-11-21T11:15:43;29.02;;;11.55;;
74044;SDS011;62389;51.412;5.436;2023-11-21T11:18:12;32.20;;;11.88;;
74044;SDS011;62389;51.412;5.436;2023-11-21T11:20:38;29.08;;;11.50;;
74044;SDS011;62389;51.412;5.436;2023-11-21T11:34:23;25.58;;;9.57;;
74044;SDS011;62389;51.412;5.436;2023-11-21T11:37:05;25.73;;;11.23;;
74044;SDS011;62389;51.412;5.436;2023-11-21T11:39:38;27.42;;;10.30;;
74044;SDS011;62389;51.412;5.436;2023-11-21T11:42:07;26.40;;;9.85;;
74044;SDS011;62389;51.412;5.436;2023-11-21T11:52:51;23.27;;;8.18;;
74044;SDS011;62389;51.412;5.436;2023-11-21T11:55:18;22.13;;;8.25;;
74044;SDS011;62389;51.412;5.436;2023-11-21T11:57:47;22.70;;;8.73;;
74044;SDS011;62389;51.412;5.436;2023-11-21T12:00:32;21.40;;;9.07;;
74044;SDS011;62389;51.412;5.436;2023-11-21T12:03:02;29.80;;;9.55;;
74044;SDS011;62389;51.412;5.436;2023-11-21T12:05:29;22.00;;;8.82;;
74044;SDS011;62389;51.412;5.436;2023-11-21T12:08:06;19.73;;;8.30;;
74044;SDS011;62389;51.412;5.436;2023-11-21T12:10:33;19.08;;;8.55;;
74044;SDS011;62389;51.412;5.436;2023-11-21T12:13:05;18.25;;;8.82;;
74044;SDS011;62389;51.412;5.436;2023-11-21T12:15:32;18.63;;;8.38;;
74044;SDS011;62389;51.412;5.436;2023-11-21T12:18:00;17.60;;;8.50;;
74044;SDS011;62389;51.412;5.436;2023-11-21T12:20:26;19.20;;;8.63;;
74044;SDS011;62389;51.412;5.436;2023-11-21T12:22:53;20.65;;;8.52;;
74044;SDS011;62389;51.412;5.436;2023-11-21T12:27:47;22.08;;;8.30;;
74044;SDS011;62389;51.412;5.436;2023-11-21T12:30:17;20.25;;;8.82;;
74044;SDS011;62389;51.412;5.436;2023-11-21T12:32:44;21.83;;;9.30;;
74044;SDS011;62389;51.412;5.436;2023-11-21T12:35:13;24.33;;;9.82;;
74044;SDS011;62389;51.412;5.436;2023-11-21T12:37:39;22.40;;;9.35;;
74044;SDS011;62389;51.412;5.436;2023-11-21T12:40:07;20.42;;;8.52;;
74044;SDS011;62389;51.412;5.436;2023-11-21T12:42:36;25.98;;;9.35;;
74044;SDS011;62389;51.412;5.436;2023-11-21T12:45:10;26.02;;;10.68;;
74044;SDS011;62389;51.412;5.436;2023-11-21T12:47:42;24.83;;;9.63;;
74044;SDS011;62389;51.412;5.436;2023-11-21T12:50:08;25.75;;;9.55;;
74044;SDS011;62389;51.412;5.436;2023-11-21T12:52:45;33.72;;;10.82;;
74044;SDS011;62389;51.412;5.436;2023-11-21T12:55:17;31.13;;;12.25;;
74044;SDS011;62389;51.412;5.436;2023-11-21T12:57:47;30.33;;;11.10;;
74044;SDS011;62389;51.412;5.436;2023-11-21T13:00:16;27.35;;;12.13;;
74044;SDS011;62389;51.412;5.436;2023-11-21T13:02:55;31.83;;;11.75;;
74044;SDS011;62389;51.412;5.436;2023-11-21T13:05:25;30.63;;;11.25;;
74044;SDS011;62389;51.412;5.436;2023-11-21T13:07:58;25.95;;;11.45;;
74044;SDS011;62389;51.412;5.436;2023-11-21T13:10:28;22.73;;;10.55;;
74044;SDS011;62389;51.412;5.436;2023-11-21T13:12:59;28.90;;;10.63;;
74044;SDS011;62389;51.412;5.436;2023-11-21T13:15:28;23.98;;;10.38;;
74044;SDS011;62389;51.412;5.436;2023-11-21T13:17:56;27.10;;;11.07;;
74044;SDS011;62389;51.412;5.436;2023-11-21T13:20:22;26.90;;;10.68;;
74044;SDS011;62389;51.412;5.436;2023-11-21T13:22:50;25.75;;;10.35;;
74044;SDS011;62389;51.412;5.436;2023-11-21T13:25:22;26.33;;;10.02;;
74044;SDS011;62389;51.412;5.436;2023-11-21T13:27:49;22.15;;;10.00;;
74044;SDS011;62389;51.412;5.436;2023-11-21T13:30:15;25.35;;;10.13;;
74044;SDS011;62389;51.412;5.436;2023-11-21T13:32:44;27.33;;;10.57;;
74044;SDS011;62389;51.412;5.436;2023-11-21T13:35:16;26.90;;;9.90;;
74044;SDS011;62389;51.412;5.436;2023-11-21T13:37:55;30.08;;;9.88;;
74044;SDS011;62389;51.412;5.436;2023-11-21T13:42:52;25.45;;;9.50;;
74044;SDS011;62389;51.412;5.436;2023-11-21T13:45:19;25.52;;;9.85;;
74044;SDS011;62389;51.412;5.436;2023-11-21T13:47:46;23.50;;;10.57;;
74044;SDS011;62389;51.412;5.436;2023-11-21T13:50:12;21.20;;;10.07;;
74044;SDS011;62389;51.412;5.436;2023-11-21T13:52:43;29.23;;;11.35;;
74044;SDS011;62389;51.412;5.436;2023-11-21T13:55:10;24.55;;;10.73;;
74044;SDS011;62389;51.412;5.436;2023-11-21T13:57:40;24.25;;;11.00;;
74044;SDS011;62389;51.412;5.436;2023-11-21T14:00:09;22.52;;;9.90;;
74044;SDS011;62389;51.412;5.436;2023-11-21T14:02:55;20.77;;;9.55;;
74044;SDS011;62389;51.412;5.436;2023-11-21T14:05:25;24.75;;;9.55;;
74044;SDS011;62389;51.412;5.436;2023-11-21T14:07:54;24.23;;;10.27;;
74044;SDS011;62389;51.412;5.436;2023-11-21T14:10:21;26.48;;;10.88;;
74044;SDS011;62389;51.412;5.436;2023-11-21T14:12:49;23.20;;;10.48;;
74044;SDS011;62389;51.412;5.436;2023-11-21T14:15:15;24.40;;;10.75;;
74044;SDS011;62389;51.412;5.436;2023-11-21T14:17:44;21.35;;;9.90;;
74044;SDS011;62389;51.412;5.436;2023-11-21T14:20:09;22.75;;;10.68;;
74044;SDS011;62389;51.412;5.436;2023-11-21T14:22:40;25.70;;;10.35;;
74044;SDS011;62389;51.412;5.436;2023-11-21T14:25:06;23.67;;;9.40;;
74044;SDS011;62389;51.412;5.436;2023-11-21T14:27:31;23.30;;;10.38;;
74044;SDS011;62389;51.412;5.436;2023-11-21T14:29:58;23.38;;;10.70;;
74044;SDS011;62389;51.412;5.436;2023-11-21T14:32:24;27.42;;;10.90;;
74044;SDS011;62389;51.412;5.436;2023-11-21T14:34:51;26.00;;;10.75;;
74044;SDS011;62389;51.412;5.436;2023-11-21T14:37:17;26.30;;;10.07;;
74044;SDS011;62389;51.412;5.436;2023-11-21T14:39:42;24.60;;;9.27;;
74044;SDS011;62389;51.412;5.436;2023-11-21T14:42:14;18.80;;;9.18;;
74044;SDS011;62389;51.412;5.436;2023-11-21T14:44:40;24.23;;;9.13;;
74044;SDS011;62389;51.412;5.436;2023-11-21T14:47:07;21.73;;;8.88;;
74044;SDS011;62389;51.412;5.436;2023-11-21T14:49:42;21.75;;;8.95;;
74044;SDS011;62389;51.412;5.436;2023-11-21T14:52:18;21.38;;;8.85;;
74044;SDS011;62389;51.412;5.436;2023-11-21T14:54:58;23.58;;;9.48;;
74044;SDS011;62389;51.412;5.436;2023-11-21T14:57:42;21.02;;;9.18;;
74044;SDS011;62389;51.412;5.436;2023-11-21T15:00:14;17.60;;;8.00;;
74044;SDS011;62389;51.412;5.436;2023-11-21T15:03:08;20.98;;;8.48;;
74044;SDS011;62389;51.412;5.436;2023-11-21T15:05:34;18.10;;;8.02;;
74044;SDS011;62389;51.412;5.436;2023-11-21T15:08:00;20.70;;;8.55;;
74044;SDS011;62389;51.412;5.436;2023-11-21T15:10:58;17.20;;;8.02;;